createdAt,value
2019-05-21T00:00:52.148Z,99.90
2019-05-21T00:03:21.474Z,99.90
2019-05-21T00:05:50.811Z,99.90
2019-05-21T00:08:20.149Z,99.90
2019-05-21T00:10:49.562Z,99.90
2019-05-21T00:13:19.155Z,99.90
2019-05-21T00:15:48.485Z,99.90
2019-05-21T00:18:17.926Z,99.90
2019-05-21T00:20:47.321Z,99.90
2019-05-21T00:23:16.666Z,99.90
2019-05-21T00:25:45.999Z,99.90
2019-05-21T00:28:42.257Z,99.90
2019-05-21T00:31:47.489Z,99.90
2019-05-21T00:34:52.357Z,99.90
2019-05-21T00:37:57.243Z,99.90
2019-05-21T00:41:02.302Z,99.90
2019-05-21T00:43:50.130Z,99.90
2019-05-21T00:46:19.467Z,99.90
2019-05-21T00:48:48.803Z,99.90
2019-05-21T00:51:18.147Z,99.90
2019-05-21T00:53:47.501Z,99.90
2019-05-21T00:56:16.892Z,99.90
2019-05-21T00:58:46.226Z,99.90
2019-05-21T01:01:15.942Z,99.90
2019-05-21T01:03:45.327Z,99.90
2019-05-21T01:06:14.674Z,99.90
2019-05-21T01:08:44.014Z,99.90
2019-05-21T01:11:13.415Z,99.90
2019-05-21T01:13:42.742Z,99.90
2019-05-21T01:16:12.088Z,99.90
2019-05-21T01:18:41.523Z,99.90
2019-05-21T01:21:11.164Z,99.90
2019-05-21T01:23:40.499Z,99.90
2019-05-21T01:26:09.846Z,99.90
2019-05-21T01:28:39.193Z,99.90
2019-05-21T01:31:08.534Z,99.90
2019-05-21T01:33:37.867Z,99.90
2019-05-21T01:36:07.213Z,99.90
2019-05-21T01:38:36.629Z,99.90
2019-05-21T01:41:05.959Z,99.90
2019-05-21T01:43:35.314Z,99.90
2019-05-21T01:46:04.728Z,99.90
2019-05-21T01:48:34.105Z,99.90
2019-05-21T01:51:03.741Z,99.90
2019-05-21T01:53:33.111Z,99.90
2019-05-21T01:56:02.443Z,99.90
2019-05-21T01:58:32.286Z,99.90
2019-05-21T02:01:01.964Z,99.90
2019-05-21T02:03:31.350Z,99.90
2019-05-21T02:06:00.688Z,99.90
2019-05-21T02:08:30.116Z,99.90
2019-05-21T02:10:59.458Z,99.90
2019-05-21T02:13:28.883Z,99.90
2019-05-21T02:15:58.255Z,99.90
2019-05-21T02:18:27.846Z,99.90
2019-05-21T02:20:57.194Z,99.90
2019-05-21T02:23:26.538Z,99.90
2019-05-21T02:25:55.874Z,99.90
2019-05-21T02:28:25.290Z,99.90
2019-05-21T02:30:56.618Z,99.90
2019-05-21T02:33:25.748Z,99.90
2019-05-21T02:35:55.300Z,99.90
2019-05-21T02:38:24.761Z,99.90
2019-05-21T02:40:54.099Z,99.90
2019-05-21T02:43:23.450Z,99.90
2019-05-21T02:45:52.852Z,99.90
2019-05-21T02:48:22.196Z,99.90
2019-05-21T02:50:51.627Z,99.90
2019-05-21T02:53:21.048Z,99.90
2019-05-21T02:55:50.401Z,99.90
2019-05-21T02:58:19.844Z,99.90
2019-05-21T03:01:26.777Z,99.90
2019-05-21T03:03:56.128Z,99.90
2019-05-21T03:06:25.460Z,99.90
2019-05-21T03:08:54.801Z,99.90
2019-05-21T03:11:24.223Z,99.90
2019-05-21T03:13:53.572Z,99.90
2019-05-21T03:16:23.278Z,99.90
2019-05-21T03:18:52.687Z,99.90
2019-05-21T03:21:22.108Z,99.90
2019-05-21T03:23:51.446Z,99.90
2019-05-21T03:26:20.792Z,99.90
2019-05-21T03:28:50.219Z,99.90
2019-05-21T03:31:19.565Z,99.90
2019-05-21T03:33:48.920Z,99.90
2019-05-21T03:36:32.466Z,99.90
2019-05-21T03:38:49.351Z,99.90
2019-05-21T03:41:18.682Z,99.90
2019-05-21T03:43:48.038Z,99.90
2019-05-21T03:46:17.415Z,99.90
2019-05-21T03:48:46.764Z,99.90
2019-05-21T03:51:16.088Z,99.90
2019-05-21T03:53:45.497Z,99.90
2019-05-21T03:56:14.895Z,99.90
2019-05-21T03:58:44.310Z,99.90
2019-05-21T04:01:13.657Z,99.90
2019-05-21T04:03:42.991Z,99.90
2019-05-21T04:06:12.348Z,99.90
2019-05-21T04:08:41.744Z,99.90
2019-05-21T04:11:11.156Z,99.90
2019-05-21T04:13:40.494Z,99.90
2019-05-21T04:16:27.229Z,99.90
2019-05-21T04:19:00.491Z,99.90
2019-05-21T04:21:30.147Z,99.90
2019-05-21T04:23:59.486Z,99.90
2019-05-21T04:26:28.886Z,99.90
2019-05-21T04:28:58.255Z,99.90
2019-05-21T04:31:27.586Z,99.90
2019-05-21T04:33:56.929Z,99.90
2019-05-21T04:36:26.350Z,99.90
2019-05-21T04:38:55.774Z,99.90
2019-05-21T04:41:25.198Z,99.90
2019-05-21T04:43:54.595Z,99.90
2019-05-21T04:46:24.230Z,99.90
2019-05-21T04:48:53.582Z,99.90
2019-05-21T04:51:22.995Z,99.90
2019-05-21T04:53:52.330Z,99.90
2019-05-21T04:56:21.666Z,99.90
2019-05-21T04:58:51.011Z,99.90
2019-05-21T05:01:20.483Z,99.90
2019-05-21T05:03:49.910Z,99.90
2019-05-21T05:06:19.247Z,99.90
2019-05-21T05:08:48.587Z,99.90
2019-05-21T05:11:17.920Z,99.90
2019-05-21T05:13:47.259Z,99.90
2019-05-21T05:16:16.612Z,99.90
2019-05-21T05:18:45.976Z,99.90
2019-05-21T05:21:15.541Z,99.90
2019-05-21T05:23:44.877Z,99.90
2019-05-21T05:26:14.249Z,99.90
2019-05-21T05:28:43.631Z,99.90
2019-05-21T05:31:15.227Z,99.90
2019-05-21T05:33:44.036Z,99.90
2019-05-21T05:36:13.635Z,99.90
2019-05-21T05:38:42.973Z,99.90
2019-05-21T05:41:12.310Z,99.90
2019-05-21T05:43:41.902Z,99.90
2019-05-21T05:46:11.223Z,99.90
2019-05-21T05:48:49.907Z,99.90
2019-05-21T05:51:19.306Z,99.90
2019-05-21T05:53:58.209Z,99.90
2019-05-21T05:56:29.113Z,99.90
2019-05-21T05:58:58.531Z,99.90
2019-05-21T06:01:29.375Z,99.90
2019-05-21T06:03:58.855Z,99.90
2019-05-21T06:06:28.311Z,99.90
2019-05-21T06:08:58.031Z,99.90
2019-05-21T06:11:27.374Z,99.90
2019-05-21T06:13:56.775Z,99.90
2019-05-21T06:16:26.137Z,99.90
2019-05-21T06:18:55.516Z,99.90
2019-05-21T06:21:24.859Z,99.90
2019-05-21T06:23:54.268Z,99.90
2019-05-21T06:26:23.681Z,99.90
2019-05-21T06:28:53.088Z,99.90
2019-05-21T06:31:22.418Z,99.90
2019-05-21T06:33:51.878Z,99.90
2019-05-21T06:36:21.386Z,99.90
2019-05-21T06:38:50.786Z,99.90
2019-05-21T06:41:20.781Z,99.90
2019-05-21T06:43:50.114Z,99.90
2019-05-21T06:46:19.542Z,99.90
2019-05-21T06:48:48.947Z,99.90
2019-05-21T06:51:18.297Z,99.90
2019-05-21T06:53:47.706Z,99.90
2019-05-21T06:56:17.064Z,99.90
2019-05-21T06:58:46.479Z,99.90
2019-05-21T07:01:15.810Z,99.90
2019-05-21T07:03:45.156Z,99.90
2019-05-21T07:06:14.498Z,99.90
2019-05-21T07:08:43.854Z,99.90
2019-05-21T07:11:13.192Z,99.90
2019-05-21T07:13:42.619Z,99.90
2019-05-21T07:16:12.019Z,99.90
2019-05-21T07:18:41.768Z,99.90
2019-05-21T07:21:11.172Z,99.90
2019-05-21T07:23:40.513Z,99.90
2019-05-21T07:26:09.844Z,99.90
2019-05-21T07:28:39.182Z,99.90
2019-05-21T07:31:08.590Z,99.90
2019-05-21T07:33:37.930Z,99.90
2019-05-21T07:36:07.243Z,99.90
2019-05-21T07:38:51.981Z,99.90
2019-05-21T07:41:07.891Z,99.90
2019-05-21T07:43:37.251Z,99.90
2019-05-21T07:46:06.646Z,99.90
2019-05-21T07:48:35.993Z,99.90
2019-05-21T07:51:05.407Z,99.90
2019-05-21T07:53:34.742Z,99.90
2019-05-21T07:56:04.086Z,99.90
2019-05-21T07:58:33.431Z,99.90
2019-05-21T08:01:02.784Z,99.90
2019-05-21T08:03:32.229Z,99.90
2019-05-21T08:06:01.623Z,99.90
2019-05-21T08:08:31.131Z,99.90
2019-05-21T08:11:00.977Z,99.90
2019-05-21T08:13:30.322Z,99.90
2019-05-21T08:15:59.651Z,99.90
2019-05-21T08:18:28.997Z,99.90
2019-05-21T08:20:58.608Z,99.90
2019-05-21T08:23:27.960Z,99.90
2019-05-21T08:25:57.623Z,99.90
2019-05-21T08:28:26.963Z,99.90
2019-05-21T08:30:56.303Z,99.90
2019-05-21T08:33:25.718Z,99.90
2019-05-21T08:35:55.063Z,99.90
2019-05-21T08:38:24.810Z,99.90
2019-05-21T08:40:54.134Z,99.90
2019-05-21T08:43:23.771Z,99.90
2019-05-21T08:45:53.127Z,99.90
2019-05-21T08:48:22.547Z,99.90
2019-05-21T08:50:51.907Z,99.90
2019-05-21T08:53:21.251Z,99.90
2019-05-21T08:55:50.587Z,99.90
2019-05-21T08:58:19.927Z,99.90
2019-05-21T09:00:49.258Z,99.90
2019-05-21T09:03:18.602Z,99.90
2019-05-21T09:05:48.050Z,99.90
2019-05-21T09:08:17.394Z,99.90
2019-05-21T09:10:46.739Z,99.90
2019-05-21T09:13:18.068Z,99.90
2019-05-21T09:15:47.163Z,99.90
2019-05-21T09:18:16.797Z,99.90
2019-05-21T09:20:46.787Z,99.90
2019-05-21T09:23:16.130Z,99.90
2019-05-21T09:25:48.961Z,99.90
2019-05-21T09:28:16.535Z,99.90
2019-05-21T09:30:45.952Z,99.90
2019-05-21T09:33:15.393Z,99.90
2019-05-21T09:35:44.824Z,99.90
2019-05-21T09:38:14.163Z,99.90
2019-05-21T09:40:43.590Z,99.90
2019-05-21T09:43:12.931Z,99.90
2019-05-21T09:45:42.283Z,99.90
2019-05-21T09:48:11.687Z,99.90
2019-05-21T09:50:41.020Z,99.90
2019-05-21T09:53:10.359Z,99.90
2019-05-21T09:55:39.870Z,99.90
2019-05-21T09:58:26.340Z,99.90
2019-05-21T10:01:17.490Z,99.90
2019-05-21T10:03:53.311Z,99.90
2019-05-21T10:06:22.899Z,99.90
2019-05-21T10:08:52.246Z,99.90
2019-05-21T10:11:21.591Z,99.90
2019-05-21T10:13:51.014Z,99.90
2019-05-21T10:16:20.356Z,99.90
2019-05-21T10:18:49.695Z,99.90
2019-05-21T10:21:19.580Z,99.70
2019-05-21T10:23:49.106Z,99.00
2019-05-21T10:26:18.450Z,98.60
2019-05-21T10:28:47.855Z,96.00
2019-05-21T10:31:17.196Z,96.70
2019-05-21T10:33:46.621Z,97.10
2019-05-21T10:36:16.087Z,95.30
2019-05-21T10:38:45.648Z,95.70
2019-05-21T10:41:15.374Z,95.60
2019-05-21T10:43:44.723Z,96.10
2019-05-21T10:46:14.124Z,96.40
2019-05-21T10:48:43.471Z,95.10
2019-05-21T10:51:12.828Z,95.80
2019-05-21T10:53:42.219Z,96.30
2019-05-21T10:56:11.561Z,96.10
2019-05-21T10:58:40.899Z,97.40
2019-05-21T11:01:33.022Z,96.90
2019-05-21T11:04:20.315Z,95.40
2019-05-21T11:06:49.863Z,95.70
2019-05-21T11:09:21.341Z,96.20
2019-05-21T11:11:50.690Z,96.90
2019-05-21T11:14:20.099Z,96.20
2019-05-21T11:16:49.469Z,96.50
2019-05-21T11:19:18.838Z,95.50
2019-05-21T11:21:48.191Z,94.80
2019-05-21T11:24:17.552Z,94.10
2019-05-21T11:26:46.879Z,93.40
2019-05-21T11:29:16.214Z,92.50
2019-05-21T11:31:56.566Z,92.50
2019-05-21T11:34:16.610Z,92.40
2019-05-21T11:36:46.019Z,92.10
2019-05-21T11:39:15.440Z,91.30
2019-05-21T11:41:44.756Z,86.40
2019-05-21T11:44:14.099Z,88.20
2019-05-21T11:46:43.427Z,87.30
2019-05-21T11:49:12.784Z,85.80
2019-05-21T11:51:42.115Z,85.10
2019-05-21T11:54:11.723Z,85.10
2019-05-21T11:56:41.583Z,83.80
2019-05-21T11:59:11.209Z,83.20
2019-05-21T12:01:40.609Z,80.30
2019-05-21T12:04:10.168Z,81.20
2019-05-21T12:06:39.597Z,81.90
2019-05-21T12:09:09.650Z,77.70
2019-05-21T12:11:39.057Z,77.70
2019-05-21T12:14:08.600Z,78.00
2019-05-21T12:16:37.944Z,78.10
2019-05-21T12:19:08.478Z,80.40
2019-05-21T12:21:38.109Z,80.80
2019-05-21T12:24:07.450Z,81.20
2019-05-21T12:26:36.783Z,81.50
2019-05-21T12:29:06.124Z,82.10
2019-05-21T12:31:35.459Z,82.40
2019-05-21T12:34:05.074Z,82.40
2019-05-21T12:36:35.006Z,79.80
2019-05-21T12:39:14.194Z,79.30
2019-05-21T12:41:37.446Z,72.20
2019-05-21T12:44:06.864Z,72.90
2019-05-21T12:46:36.295Z,74.50
2019-05-21T12:49:05.633Z,74.80
2019-05-21T12:51:35.055Z,74.00
2019-05-21T12:54:04.467Z,70.50
2019-05-21T12:56:33.797Z,73.70
2019-05-21T12:59:03.361Z,70.80
2019-05-21T13:01:32.711Z,70.30
2019-05-21T13:04:02.075Z,69.70
2019-05-21T13:06:31.415Z,70.40
2019-05-21T13:09:00.808Z,68.70
2019-05-21T13:11:30.471Z,67.40
2019-05-21T13:13:59.804Z,68.70
2019-05-21T13:16:29.392Z,65.50
2019-05-21T13:18:59.023Z,68.10
2019-05-21T13:21:28.365Z,70.10
2019-05-21T13:23:57.700Z,72.30
2019-05-21T13:26:27.043Z,71.30
2019-05-21T13:28:56.484Z,71.30
2019-05-21T13:31:25.883Z,70.10
2019-05-21T13:33:55.292Z,70.70
2019-05-21T13:36:24.635Z,69.60
2019-05-21T13:38:54.047Z,71.70
2019-05-21T13:41:23.680Z,71.60
2019-05-21T13:43:53.267Z,72.60
2019-05-21T13:46:23.131Z,73.20
2019-05-21T13:48:52.463Z,72.70
2019-05-21T13:51:22.030Z,71.20
2019-05-21T13:53:51.443Z,72.00
2019-05-21T13:56:20.856Z,67.90
2019-05-21T13:58:50.196Z,67.70
2019-05-21T14:01:19.706Z,69.10
2019-05-21T14:03:49.758Z,66.70
2019-05-21T14:06:20.335Z,64.90
2019-05-21T14:08:50.311Z,65.80
2019-05-21T14:11:20.152Z,66.00
2019-05-21T14:13:49.500Z,69.00
2019-05-21T14:16:18.914Z,67.40
2019-05-21T14:18:48.510Z,68.00
2019-05-21T14:21:17.855Z,66.70
2019-05-21T14:23:47.200Z,65.20
2019-05-21T14:26:16.549Z,65.70
2019-05-21T14:28:45.985Z,64.30
2019-05-21T14:31:15.335Z,64.00
2019-05-21T14:33:46.861Z,67.00
2019-05-21T14:36:15.810Z,67.00
2019-05-21T14:38:45.215Z,65.40
2019-05-21T14:41:14.547Z,66.40
2019-05-21T14:43:43.938Z,66.50
2019-05-21T14:46:13.267Z,68.00
2019-05-21T14:48:42.673Z,68.00
2019-05-21T14:51:13.510Z,67.90
2019-05-21T14:53:43.082Z,69.80
2019-05-21T14:56:12.418Z,70.10
2019-05-21T14:58:41.766Z,71.20
2019-05-21T15:01:11.104Z,73.00
2019-05-21T15:03:40.519Z,74.40
2019-05-21T15:06:09.870Z,75.50
2019-05-21T15:08:39.219Z,76.50
2019-05-21T15:11:08.646Z,77.40
2019-05-21T15:13:38.036Z,77.70
2019-05-21T15:16:07.560Z,78.40
2019-05-21T15:18:36.967Z,78.70
2019-05-21T15:21:17.611Z,79.20
2019-05-21T15:23:48.046Z,79.50
2019-05-21T15:26:18.088Z,79.80
2019-05-21T15:28:47.468Z,80.50
2019-05-21T15:31:16.894Z,80.00
2019-05-21T15:33:46.289Z,79.20
2019-05-21T15:36:15.632Z,80.10
2019-05-21T15:38:50.811Z,77.30
2019-05-21T15:41:16.016Z,77.70
2019-05-21T15:43:45.643Z,76.90
2019-05-21T15:46:15.009Z,75.70
2019-05-21T15:48:44.357Z,76.00
2019-05-21T15:51:13.764Z,75.90
2019-05-21T15:53:43.106Z,77.40
2019-05-21T15:56:12.536Z,78.00
2019-05-21T15:58:41.941Z,78.40
2019-05-21T16:01:11.272Z,80.00
2019-05-21T16:03:40.899Z,80.40
2019-05-21T16:06:10.529Z,80.90
2019-05-21T16:08:40.182Z,83.50
2019-05-21T16:11:27.014Z,82.60
2019-05-21T16:13:41.011Z,82.80
2019-05-21T16:16:10.366Z,82.30
2019-05-21T16:18:39.808Z,84.20
2019-05-21T16:21:09.207Z,83.60
2019-05-21T16:23:38.542Z,84.50
2019-05-21T16:26:07.887Z,87.00
2019-05-21T16:28:37.229Z,85.20
2019-05-21T16:31:06.645Z,88.30
2019-05-21T16:33:36.067Z,85.80
2019-05-21T16:36:05.646Z,86.60
2019-05-21T16:38:35.390Z,87.60
2019-05-21T16:41:05.774Z,88.00
2019-05-21T16:43:35.213Z,88.10
2019-05-21T16:46:05.267Z,87.20
2019-05-21T16:48:34.636Z,85.80
2019-05-21T16:51:04.116Z,85.60
2019-05-21T16:53:33.531Z,86.60
2019-05-21T16:56:02.867Z,87.50
2019-05-21T16:58:32.281Z,87.90
2019-05-21T17:01:02.286Z,89.50
2019-05-21T17:03:31.658Z,89.20
2019-05-21T17:06:01.498Z,88.90
2019-05-21T17:08:30.838Z,90.20
2019-05-21T17:11:00.175Z,89.60
2019-05-21T17:13:29.611Z,89.50
2019-05-21T17:15:58.973Z,90.20
2019-05-21T17:18:28.376Z,91.00
2019-05-21T17:20:57.714Z,91.00
2019-05-21T17:23:27.119Z,92.50
2019-05-21T17:25:56.459Z,91.90
2019-05-21T17:28:25.794Z,91.40
2019-05-21T17:30:55.225Z,92.60
2019-05-21T17:33:24.576Z,92.50
2019-05-21T17:35:54.004Z,93.10
2019-05-21T17:38:24.609Z,93.50
2019-05-21T17:40:54.267Z,92.70
2019-05-21T17:43:23.631Z,94.00
2019-05-21T17:45:53.075Z,92.80
2019-05-21T17:48:22.419Z,93.30
2019-05-21T17:50:51.861Z,93.00
2019-05-21T17:53:21.210Z,93.40
2019-05-21T17:55:50.553Z,93.70
2019-05-21T17:58:19.979Z,93.50
2019-05-21T18:00:53.715Z,94.30
2019-05-21T18:03:23.144Z,94.10
2019-05-21T18:05:52.548Z,94.30
2019-05-21T18:08:21.950Z,94.50
2019-05-21T18:10:51.414Z,94.20
2019-05-21T18:13:21.495Z,94.60
2019-05-21T18:15:51.808Z,94.70
2019-05-21T18:18:22.179Z,94.90
2019-05-21T18:20:51.620Z,95.20
2019-05-21T18:23:21.190Z,95.70
2019-05-21T18:25:50.599Z,96.30
2019-05-21T18:28:19.943Z,96.70
2019-05-21T18:30:49.343Z,97.50
2019-05-21T18:33:18.702Z,97.90
2019-05-21T18:35:48.113Z,98.40
2019-05-21T18:38:17.550Z,98.80
2019-05-21T18:40:46.891Z,99.30
2019-05-21T18:43:16.242Z,99.50
2019-05-21T18:45:45.582Z,99.90
2019-05-21T18:48:14.951Z,99.90
2019-05-21T18:50:44.370Z,99.90
2019-05-21T18:53:13.723Z,99.90
2019-05-21T18:55:43.063Z,99.90
2019-05-21T18:58:12.413Z,99.90
2019-05-21T19:00:41.753Z,99.90
2019-05-21T19:03:12.063Z,99.90
2019-05-21T19:05:41.405Z,99.90
2019-05-21T19:08:10.913Z,99.90
2019-05-21T19:10:40.312Z,99.90
2019-05-21T19:13:09.925Z,99.90
2019-05-21T19:15:39.255Z,99.90
2019-05-21T19:18:08.652Z,99.90
2019-05-21T19:20:37.999Z,99.90
2019-05-21T19:23:07.331Z,99.90
2019-05-21T19:25:36.662Z,99.90
2019-05-21T19:28:06.101Z,99.90
2019-05-21T19:30:35.503Z,99.90
2019-05-21T19:33:04.831Z,99.90
2019-05-21T19:35:34.279Z,99.90
2019-05-21T19:38:03.646Z,99.90
2019-05-21T19:40:33.081Z,99.90
2019-05-21T19:43:02.539Z,99.90
2019-05-21T19:45:31.863Z,99.90
2019-05-21T19:48:01.228Z,99.90
2019-05-21T19:50:30.659Z,99.90
2019-05-21T19:52:59.994Z,99.90
2019-05-21T19:55:29.551Z,99.90
2019-05-21T19:57:58.945Z,99.90
2019-05-21T20:00:30.549Z,99.90
2019-05-21T20:03:00.460Z,99.90
2019-05-21T20:05:29.895Z,99.90
2019-05-21T20:07:59.513Z,99.90
2019-05-21T20:10:28.939Z,99.90
2019-05-21T20:12:58.288Z,99.90
2019-05-21T20:15:27.709Z,99.90
2019-05-21T20:18:06.895Z,99.90
2019-05-21T20:20:30.095Z,99.90
2019-05-21T20:22:59.865Z,99.90
2019-05-21T20:25:30.932Z,99.90
2019-05-21T20:28:00.632Z,99.90
2019-05-21T20:30:31.720Z,99.90
2019-05-21T20:33:01.125Z,99.90
2019-05-21T20:35:31.994Z,99.90
2019-05-21T20:38:01.340Z,99.90
2019-05-21T20:40:30.686Z,99.90
2019-05-21T20:43:00.546Z,99.90
2019-05-21T20:45:31.307Z,99.90
2019-05-21T20:48:02.565Z,99.90
2019-05-21T20:50:32.012Z,99.90
2019-05-21T20:53:01.341Z,99.90
2019-05-21T20:55:32.285Z,99.90
2019-05-21T20:58:01.613Z,99.90
2019-05-21T21:00:41.002Z,99.90
2019-05-21T21:03:11.672Z,99.90
2019-05-21T21:05:41.389Z,99.90
2019-05-21T21:08:10.866Z,99.90
2019-05-21T21:10:40.681Z,99.90
2019-05-21T21:13:11.451Z,99.90
2019-05-21T21:15:41.206Z,99.90
2019-05-21T21:18:10.555Z,99.90
2019-05-21T21:20:40.372Z,99.90
2019-05-21T21:23:09.960Z,99.90
2019-05-21T21:25:39.284Z,99.90
2019-05-21T21:28:08.636Z,99.90
2019-05-21T21:30:38.166Z,99.90
2019-05-21T21:33:08.415Z,99.90
2019-05-21T21:35:37.739Z,99.90
2019-05-21T21:38:08.674Z,99.90
2019-05-21T21:40:38.311Z,99.90
2019-05-21T21:43:08.225Z,99.90
2019-05-21T21:45:38.500Z,99.90
2019-05-21T21:48:08.594Z,99.90
2019-05-21T21:50:39.514Z,99.90
2019-05-21T21:53:09.185Z,99.90
2019-05-21T21:55:38.601Z,99.90
2019-05-21T21:58:08.031Z,99.90
2019-05-21T22:01:22.530Z,99.90
2019-05-21T22:03:52.465Z,99.90
2019-05-21T22:06:23.759Z,99.90
2019-05-21T22:08:54.037Z,99.90
2019-05-21T22:11:23.726Z,99.90
2019-05-21T22:13:53.133Z,99.90
2019-05-21T22:16:22.862Z,99.90
2019-05-21T22:18:52.815Z,99.90
2019-05-21T22:21:22.649Z,99.90
2019-05-21T22:23:52.350Z,99.90
2019-05-21T22:26:21.702Z,99.90
2019-05-21T22:28:51.196Z,99.90
2019-05-21T22:31:20.527Z,99.90
2019-05-21T22:33:49.855Z,99.90
2019-05-21T22:36:19.715Z,99.90
2019-05-21T22:38:49.255Z,99.90
2019-05-21T22:41:18.658Z,99.90
2019-05-21T22:43:48.053Z,99.90
2019-05-21T22:46:17.395Z,99.90
2019-05-21T22:48:46.720Z,99.90
2019-05-21T22:51:16.130Z,99.90
2019-05-21T22:53:45.537Z,99.90
2019-05-21T22:56:15.072Z,99.90
2019-05-21T22:58:44.414Z,99.90
2019-05-21T23:01:14.349Z,99.90
2019-05-21T23:03:44.094Z,99.90
2019-05-21T23:06:13.891Z,99.90
2019-05-21T23:08:43.233Z,99.90
2019-05-21T23:11:12.565Z,99.90
2019-05-21T23:13:41.894Z,99.90
2019-05-21T23:16:11.826Z,99.90
2019-05-21T23:18:41.161Z,99.90
2019-05-21T23:21:11.271Z,99.90
2019-05-21T23:23:41.692Z,99.90
2019-05-21T23:26:11.619Z,99.90
2019-05-21T23:28:43.059Z,99.90
2019-05-21T23:31:13.074Z,99.90
2019-05-21T23:33:42.936Z,99.90
2019-05-21T23:36:13.609Z,99.90
2019-05-21T23:38:43.086Z,99.90
2019-05-21T23:41:12.440Z,99.90
2019-05-21T23:43:42.175Z,99.90
2019-05-21T23:46:12.794Z,99.90
2019-05-21T23:48:42.113Z,99.90
2019-05-21T23:51:11.920Z,99.90
2019-05-21T23:53:42.454Z,99.90
2019-05-21T23:56:12.135Z,99.90
2019-05-21T23:58:41.732Z,99.90
